Forside
METAR-TAF:

METAR-TAF

Lufthavne :

Sindal Lufthavn

Sindal, Danmark

Breddekreds: 57-30N, længdekreds: 010-13E, højde: 28 m

Aktuelle vejr

Denne rapport blev lavet for 13 timer og 28 minutter siden, kl. 12:50 UTC
Vind 8 kt fra vestsydvest
Temperatur 15°C
Fugtighed 77%
Tryk 1009 hPa
Sigt 10 km eller mere
Spredte skyer i en højde af 1500 ft
Brudte skyer i en højde af 13000 ft

METAR: EKSN 211250Z 24008KT 9999 SCT015 BKN130 15/11 Q1009

Tid: 04:18 (02:18 UTC)

Vejrudsigter

Denne rapport blev lavet for 16 timer og 55 minutter siden, kl. 09:23 UTC
Foreløbig gælder fra 21 på 09 UTC til 21 på 14 UTC
Vind 10 kt fra vestsydvest
Sigt 10 km eller mere
Brudte skyer i en højde af 1800 ft

TAF: EKSN 210923Z 2109/2114 24010KT 9999 BKN018

Vejrobservationer og prognoser fra mere end 4000 lufthavne (METAR og TAF).

De gule og røde prikker repræsenterer de meteorologiske stationer.

Flyt musen over at se navnet på stationen.

Så klik over at se vejr observationer og prognoser.

At skifte det kort: Klik på de grønne knapper med et sort kors for at zoome ind; på den grønne knap med en bindestreg for at zoome ud; eller på de grønne pile for tilstødende kort.


METAR-TAF: